Terminal Aerodrome Forecast
Issued by NWS

Home | Current Version | Previous Version | Graphics & Text | Print | Product List | Glossary On
Versions: 1 2 3 4 5 6 7 8 9 10 11 12 13 14 15 16 17 18 19 20 21 22 23 24 25 26 27 28 29
106
FTUS43 KUNR 220144 AAA
TAFGCC
TAF AMD
KGCC 220144Z 2202/2224 32006KT P6SM VCSH SCT008 OVC010
      TEMPO 2202/2205 BKN008
     FM220500 08008KT P6SM VCSH SCT008 OVC010
     FM220900 11010KT P6SM VCSH OVC015
     FM221600 14020G30KT P6SM BKN025=

USA.gov is the U.S. government's official web portal to all federal, state and local government web resources and services.